Time,TemperatureF,DewpointF,PressureIn,WindDirection,WindDirectionDegrees,WindSpeedMPH,WindSpeedGustMPH,Humidity,HourlyPrecipIn,Conditions,Clouds,dailyrainin,SoftwareType,DateUTC
2013-05-03 00:01:00,55.6,36.7,30.29,East,86,0.0,0.0,49,0.00,,,0.00,Wunderground v.1.12,2013-05-03 04:01:00,
2013-05-03 00:02:00,55.7,36.3,30.30,N/A,-737280,0.0,0.0,48,0.00,,,0.00,Wunderground v.1.12,2013-05-03 04:02:00,
2013-05-03 00:04:00,55.7,37.3,30.29,East,86,0.0,0.0,50,0.00,,,0.00,Wunderground v.1.12,2013-05-03 04:04:00,
2013-05-03 00:05:00,55.7,37.3,30.29,East,86,0.0,0.0,50,0.00,,,0.00,Wunderground v.1.12,2013-05-03 04:05:00,
2013-05-03 00:07:00,55.7,36.3,30.29,East,86,0.0,0.0,48,0.00,,,0.00,Wunderground v.1.12,2013-05-03 04:07:00,
2013-05-03 00:09:00,55.7,36.3,30.29,East,86,0.0,0.0,48,0.00,,,0.00,Wunderground v.1.12,2013-05-03 04:09:00,
2013-05-03 00:12:00,55.7,36.8,30.30,N/A,-737280,0.0,0.0,49,0.00,,,0.00,Wunderground v.1.12,2013-05-03 04:12:00,
2013-05-03 00:14:00,55.7,36.8,30.30,East,86,0.0,0.0,49,0.00,,,0.00,Wunderground v.1.12,2013-05-03 04:14:00,
2013-05-03 00:17:00,55.7,36.8,30.31,N/A,-737280,0.0,0.0,49,0.00,,,0.00,Wunderground v.1.12,2013-05-03 04:17:00,
2013-05-03 00:19:00,55.7,36.3,30.30,East,86,0.0,0.0,48,0.00,,,0.00,Wunderground v.1.12,2013-05-03 04:19:00,
2013-05-03 00:22:00,55.6,37.7,30.31,N/A,-737280,0.0,0.0,51,0.00,,,0.00,Wunderground v.1.12,2013-05-03 04:22:00,
2013-05-03 00:24:00,55.7,36.8,30.30,East,86,0.0,0.0,49,0.00,,,0.00,Wunderground v.1.12,2013-05-03 04:24:00,
2013-05-03 00:27:00,55.3,38.0,30.31,N/A,-737280,0.0,0.0,52,0.00,,,0.00,Wunderground v.1.12,2013-05-03 04:27:00,
2013-05-03 00:29:00,55.7,37.3,30.31,East,86,0.0,0.0,50,0.00,,,0.00,Wunderground v.1.12,2013-05-03 04:29:00,
2013-05-03 00:32:00,55.0,37.2,30.31,N/A,-737280,0.0,0.0,51,0.00,,,0.00,Wunderground v.1.12,2013-05-03 04:32:00,
2013-05-03 00:34:00,55.4,37.6,30.31,East,86,0.0,0.0,51,0.00,,,0.00,Wunderground v.1.12,2013-05-03 04:34:00,
2013-05-03 00:37:00,54.5,37.7,30.31,N/A,-737280,0.0,0.0,53,0.00,,,0.00,Wunderground v.1.12,2013-05-03 04:37:00,
2013-05-03 00:39:00,55.1,38.3,30.31,East,86,0.0,0.0,53,0.00,,,0.00,Wunderground v.1.12,2013-05-03 04:39:00,
2013-05-03 00:42:00,54.4,38.1,30.31,N/A,-737280,0.0,0.0,54,0.00,,,0.00,Wunderground v.1.12,2013-05-03 04:42:00,
2013-05-03 00:44:00,54.8,37.5,30.31,East,86,0.0,0.0,52,0.00,,,0.00,Wunderground v.1.12,2013-05-03 04:44:00,
2013-05-03 00:47:00,54.1,37.8,30.32,N/A,-737280,0.0,0.0,54,0.00,,,0.00,Wunderground v.1.12,2013-05-03 04:47:00,
2013-05-03 00:49:00,54.5,37.7,30.31,East,86,0.0,0.0,53,0.00,,,0.00,Wunderground v.1.12,2013-05-03 04:49:00,
2013-05-03 00:52:00,53.8,38.5,30.32,N/A,-737280,0.0,0.0,56,0.00,,,0.00,Wunderground v.1.12,2013-05-03 04:52:00,
2013-05-03 00:55:00,54.1,37.8,30.31,East,86,0.0,0.0,54,0.00,,,0.00,Wunderground v.1.12,2013-05-03 04:55:00,
2013-05-03 00:57:00,53.5,38.6,30.32,N/A,-737280,0.0,0.0,57,0.00,,,0.00,Wunderground v.1.12,2013-05-03 04:57:00,
2013-05-03 01:00:00,53.9,37.6,30.32,East,86,0.0,0.0,54,0.00,,,0.00,Wunderground v.1.12,2013-05-03 05:00:00,
2013-05-03 01:02:00,53.5,38.2,30.33,N/A,-737280,0.0,0.0,56,0.00,,,0.00,Wunderground v.1.12,2013-05-03 05:02:00,
2013-05-03 01:05:00,53.6,38.7,30.32,East,86,0.0,0.0,57,0.00,,,0.00,Wunderground v.1.12,2013-05-03 05:05:00,
2013-05-03 01:07:00,53.3,38.0,30.33,N/A,-737280,0.0,0.0,56,0.00,,,0.00,Wunderground v.1.12,2013-05-03 05:07:00,
2013-05-03 01:10:00,53.5,38.2,30.32,East,86,0.0,0.0,56,0.00,,,0.00,Wunderground v.1.12,2013-05-03 05:10:00,
2013-05-03 01:12:00,53.1,37.8,30.33,N/A,-737280,0.0,0.0,56,0.00,,,0.00,Wunderground v.1.12,2013-05-03 05:12:00,
2013-05-03 01:16:00,53.3,38.0,30.33,East,86,0.0,0.0,56,0.00,,,0.00,Wunderground v.1.12,2013-05-03 05:16:00,
2013-05-03 01:17:00,52.9,37.6,30.32,N/A,-737280,0.0,0.0,56,0.00,,,0.00,Wunderground v.1.12,2013-05-03 05:17:00,
2013-05-03 01:21:00,53.1,37.8,30.33,East,86,0.0,0.0,56,0.00,,,0.00,Wunderground v.1.12,2013-05-03 05:21:00,
2013-05-03 01:22:00,52.8,38.0,30.32,N/A,-737280,0.0,0.0,57,0.00,,,0.00,Wunderground v.1.12,2013-05-03 05:22:00,
2013-05-03 01:27:00,52.9,37.6,30.32,East,86,0.0,0.0,56,0.00,,,0.00,Wunderground v.1.12,2013-05-03 05:27:00,
2013-05-03 01:32:00,52.8,38.0,30.32,East,86,0.0,0.0,57,0.00,,,0.00,Wunderground v.1.12,2013-05-03 05:32:00,
2013-05-03 01:37:00,52.6,37.8,30.32,East,86,0.0,0.0,57,0.00,,,0.00,Wunderground v.1.12,2013-05-03 05:37:00,
2013-05-03 01:42:00,52.5,37.7,30.32,East,86,0.0,0.0,57,0.00,,,0.00,Wunderground v.1.12,2013-05-03 05:42:00,
2013-05-03 01:47:00,52.3,37.5,30.32,East,86,0.0,0.0,57,0.00,,,0.00,Wunderground v.1.12,2013-05-03 05:47:00,
2013-05-03 01:52:00,52.2,37.9,30.32,East,86,0.0,0.0,58,0.00,,,0.00,Wunderground v.1.12,2013-05-03 05:52:00,
2013-05-03 01:57:00,51.9,38.0,30.33,N/A,-737280,0.0,0.0,59,0.00,,,0.00,Wunderground v.1.12,2013-05-03 05:57:00,
2013-05-03 01:59:00,52.0,38.5,30.32,East,86,0.0,0.0,60,0.00,,,0.00,Wunderground v.1.12,2013-05-03 05:59:00,
2013-05-03 02:02:00,51.9,38.0,30.33,N/A,-737280,0.0,0.0,59,0.00,,,0.00,Wunderground v.1.12,2013-05-03 06:02:00,
2013-05-03 02:04:00,52.0,38.5,30.32,East,86,0.0,0.0,60,0.00,,,0.00,Wunderground v.1.12,2013-05-03 06:04:00,
2013-05-03 02:07:00,51.7,37.8,30.33,N/A,-737280,0.0,0.0,59,0.00,,,0.00,Wunderground v.1.12,2013-05-03 06:07:00,
2013-05-03 02:10:00,51.9,38.0,30.32,East,86,0.0,0.0,59,0.00,,,0.00,Wunderground v.1.12,2013-05-03 06:10:00,
2013-05-03 02:12:00,51.6,37.7,30.33,N/A,-737280,0.0,0.0,59,0.00,,,0.00,Wunderground v.1.12,2013-05-03 06:12:00,
2013-05-03 02:15:00,51.9,38.0,30.33,East,86,0.0,0.0,59,0.00,,,0.00,Wunderground v.1.12,2013-05-03 06:15:00,
2013-05-03 02:17:00,51.6,38.2,30.33,N/A,-737280,0.0,0.0,60,0.00,,,0.00,Wunderground v.1.12,2013-05-03 06:17:00,
2013-05-03 02:20:00,51.7,37.8,30.33,East,86,0.0,0.0,59,0.00,,,0.00,Wunderground v.1.12,2013-05-03 06:20:00,
2013-05-03 02:22:00,51.6,38.2,30.33,N/A,-737280,0.0,0.0,60,0.00,,,0.00,Wunderground v.1.12,2013-05-03 06:22:00,
2013-05-03 02:25:00,51.6,38.2,30.33,East,86,0.0,0.0,60,0.00,,,0.00,Wunderground v.1.12,2013-05-03 06:25:00,
2013-05-03 02:27:00,51.6,37.7,30.33,N/A,-737280,0.0,0.0,59,0.00,,,0.00,Wunderground v.1.12,2013-05-03 06:27:00,
2013-05-03 02:30:00,51.6,38.2,30.33,East,86,0.0,0.0,60,0.00,,,0.00,Wunderground v.1.12,2013-05-03 06:30:00,
2013-05-03 02:32:00,51.6,38.2,30.33,N/A,-737280,0.0,0.0,60,0.00,,,0.00,Wunderground v.1.12,2013-05-03 06:32:00,
2013-05-03 02:35:00,51.6,38.2,30.33,East,86,0.0,0.0,60,0.00,,,0.00,Wunderground v.1.12,2013-05-03 06:35:00,
2013-05-03 02:37:00,51.6,38.6,30.33,N/A,-737280,0.0,0.0,61,0.00,,,0.00,Wunderground v.1.12,2013-05-03 06:37:00,
2013-05-03 02:40:00,51.6,38.2,30.33,East,86,0.0,0.0,60,0.00,,,0.00,Wunderground v.1.12,2013-05-03 06:40:00,
2013-05-03 02:42:00,51.6,39.0,30.33,N/A,-737280,0.0,0.0,62,0.00,,,0.00,Wunderground v.1.12,2013-05-03 06:42:00,
2013-05-03 02:45:00,51.6,38.6,30.33,East,86,0.0,0.0,61,0.00,,,0.00,Wunderground v.1.12,2013-05-03 06:45:00,
2013-05-03 02:47:00,51.7,39.1,30.33,N/A,-737280,0.0,0.0,62,0.00,,,0.00,Wunderground v.1.12,2013-05-03 06:47:00,
2013-05-03 02:50:00,51.6,38.6,30.33,East,86,0.0,0.0,61,0.00,,,0.00,Wunderground v.1.12,2013-05-03 06:50:00,
2013-05-03 02:52:00,51.7,39.5,30.33,N/A,-737280,0.0,0.0,63,0.00,,,0.00,Wunderground v.1.12,2013-05-03 06:52:00,
2013-05-03 02:55:00,51.7,39.5,30.33,East,86,0.0,0.0,63,0.00,,,0.00,Wunderground v.1.12,2013-05-03 06:55:00,
2013-05-03 02:57:00,51.7,39.1,30.33,N/A,-737280,0.0,0.0,62,0.00,,,0.00,Wunderground v.1.12,2013-05-03 06:57:00,
2013-05-03 03:00:00,51.7,39.1,30.33,East,86,0.0,0.0,62,0.00,,,0.00,Wunderground v.1.12,2013-05-03 07:00:00,
2013-05-03 03:02:00,51.7,38.7,30.34,N/A,-737280,0.0,0.0,61,0.00,,,0.00,Wunderground v.1.12,2013-05-03 07:02:00,
2013-05-03 03:05:00,51.7,39.1,30.33,East,86,0.0,0.0,62,0.00,,,0.00,Wunderground v.1.12,2013-05-03 07:05:00,
2013-05-03 03:07:00,51.7,38.7,30.34,N/A,-737280,0.0,0.0,61,0.00,,,0.00,Wunderground v.1.12,2013-05-03 07:07:00,
2013-05-03 03:10:00,51.7,39.1,30.33,East,86,0.0,0.0,62,0.00,,,0.00,Wunderground v.1.12,2013-05-03 07:10:00,
2013-05-03 03:12:00,51.7,38.3,30.34,N/A,-737280,0.0,0.0,60,0.00,,,0.00,Wunderground v.1.12,2013-05-03 07:12:00,
2013-05-03 03:15:00,51.7,38.3,30.34,East,86,0.0,0.0,60,0.00,,,0.00,Wunderground v.1.12,2013-05-03 07:15:00,
2013-05-03 03:17:00,51.7,38.3,30.34,N/A,-737280,0.0,0.0,60,0.00,,,0.00,Wunderground v.1.12,2013-05-03 07:17:00,
2013-05-03 03:20:00,51.7,38.3,30.34,East,86,0.0,0.0,60,0.00,,,0.00,Wunderground v.1.12,2013-05-03 07:20:00,
2013-05-03 03:22:00,51.7,39.5,30.34,N/A,-737280,0.0,0.0,63,0.00,,,0.00,Wunderground v.1.12,2013-05-03 07:22:00,
2013-05-03 03:25:00,51.7,38.3,30.34,East,86,0.0,0.0,60,0.00,,,0.00,Wunderground v.1.12,2013-05-03 07:25:00,
2013-05-03 03:27:00,51.6,39.0,30.34,N/A,-737280,0.0,0.0,62,0.00,,,0.00,Wunderground v.1.12,2013-05-03 07:27:00,
2013-05-03 03:30:00,51.7,39.1,30.34,East,86,0.0,0.0,62,0.00,,,0.00,Wunderground v.1.12,2013-05-03 07:30:00,
2013-05-03 03:32:00,51.6,39.0,30.35,N/A,-737280,0.0,0.0,62,0.00,,,0.00,Wunderground v.1.12,2013-05-03 07:32:00,
2013-05-03 03:35:00,51.6,39.4,30.34,East,86,0.0,0.0,63,0.00,,,0.00,Wunderground v.1.12,2013-05-03 07:35:00,
2013-05-03 03:37:00,51.4,38.8,30.35,N/A,-737280,0.0,0.0,62,0.00,,,0.00,Wunderground v.1.12,2013-05-03 07:37:00,
2013-05-03 03:40:00,51.6,39.0,30.34,East,86,0.0,0.0,62,0.00,,,0.00,Wunderground v.1.12,2013-05-03 07:40:00,
2013-05-03 03:42:00,51.3,38.7,30.35,N/A,-737280,0.0,0.0,62,0.00,,,0.00,Wunderground v.1.12,2013-05-03 07:42:00,
2013-05-03 03:45:00,51.4,38.8,30.35,East,86,0.0,0.0,62,0.00,,,0.00,Wunderground v.1.12,2013-05-03 07:45:00,
2013-05-03 03:47:00,51.3,39.1,30.35,N/A,-737280,0.0,0.0,63,0.00,,,0.00,Wunderground v.1.12,2013-05-03 07:47:00,
2013-05-03 03:50:00,51.3,38.7,30.35,East,86,0.0,0.0,62,0.00,,,0.00,Wunderground v.1.12,2013-05-03 07:50:00,
2013-05-03 03:52:00,51.3,39.5,30.35,N/A,-737280,0.0,0.0,64,0.00,,,0.00,Wunderground v.1.12,2013-05-03 07:52:00,
2013-05-03 03:55:00,51.3,39.1,30.35,East,86,0.0,0.0,63,0.00,,,0.00,Wunderground v.1.12,2013-05-03 07:55:00,
2013-05-03 03:57:00,51.3,39.9,30.35,N/A,-737280,0.0,0.0,65,0.00,,,0.00,Wunderground v.1.12,2013-05-03 07:57:00,
2013-05-03 04:01:00,51.3,39.5,30.35,East,85,0.0,0.0,64,0.00,,,0.00,Wunderground v.1.12,2013-05-03 08:01:00,
2013-05-03 04:02:00,51.1,39.7,30.36,N/A,-737280,0.0,0.0,65,0.00,,,0.00,Wunderground v.1.12,2013-05-03 08:02:00,
2013-05-03 04:06:00,51.3,39.9,30.35,East,85,0.0,0.0,65,0.00,,,0.00,Wunderground v.1.12,2013-05-03 08:06:00,
2013-05-03 04:07:00,51.0,39.2,30.36,N/A,-737280,0.0,0.0,64,0.00,,,0.00,Wunderground v.1.12,2013-05-03 08:07:00,
2013-05-03 04:11:00,51.1,39.3,30.35,East,85,0.0,0.0,64,0.00,,,0.00,Wunderground v.1.12,2013-05-03 08:11:00,
2013-05-03 04:12:00,50.8,39.5,30.36,N/A,-737280,0.0,0.0,65,0.00,,,0.00,Wunderground v.1.12,2013-05-03 08:12:00,
2013-05-03 04:16:00,51.1,39.7,30.36,East,85,0.0,0.0,65,0.00,,,0.00,Wunderground v.1.12,2013-05-03 08:16:00,
2013-05-03 04:17:00,50.7,39.4,30.36,N/A,-737280,0.0,0.0,65,0.00,,,0.00,Wunderground v.1.12,2013-05-03 08:17:00,
2013-05-03 04:21:00,51.0,39.6,30.36,East,85,0.0,0.0,65,0.00,,,0.00,Wunderground v.1.12,2013-05-03 08:21:00,
2013-05-03 04:22:00,50.5,39.6,30.36,SSW,203,0.0,1.0,66,0.00,,,0.00,Wunderground v.1.12,2013-05-03 08:22:00,
2013-05-03 04:26:00,50.7,39.4,30.36,East,85,0.0,0.0,65,0.00,,,0.00,Wunderground v.1.12,2013-05-03 08:26:00,
2013-05-03 04:27:00,50.2,39.7,30.36,N/A,-737280,0.0,0.0,67,0.00,,,0.00,Wunderground v.1.12,2013-05-03 08:27:00,
2013-05-03 04:31:00,50.5,39.6,30.36,SSW,199,0.0,0.0,66,0.00,,,0.00,Wunderground v.1.12,2013-05-03 08:31:00,
2013-05-03 04:32:00,50.1,39.9,30.36,N/A,-737280,0.0,0.0,68,0.00,,,0.00,Wunderground v.1.12,2013-05-03 08:32:00,
2013-05-03 04:36:00,50.2,39.7,30.36,SSW,199,0.0,0.0,67,0.00,,,0.00,Wunderground v.1.12,2013-05-03 08:36:00,
2013-05-03 04:37:00,49.9,39.8,30.36,N/A,-737280,0.0,0.0,68,0.00,,,0.00,Wunderground v.1.12,2013-05-03 08:37:00,
2013-05-03 04:41:00,50.1,39.6,30.36,SSW,199,0.0,0.0,67,0.00,,,0.00,Wunderground v.1.12,2013-05-03 08:41:00,
2013-05-03 04:42:00,49.6,39.8,30.36,N/A,-737280,0.0,0.0,69,0.00,,,0.00,Wunderground v.1.12,2013-05-03 08:42:00,
2013-05-03 04:46:00,49.9,39.8,30.36,SSW,199,0.0,0.0,68,0.00,,,0.00,Wunderground v.1.12,2013-05-03 08:46:00,
2013-05-03 04:47:00,49.4,40.0,30.36,N/A,-737280,0.0,0.0,70,0.00,,,0.00,Wunderground v.1.12,2013-05-03 08:47:00,
2013-05-03 04:51:00,49.8,40.0,30.36,SSW,199,0.0,0.0,69,0.00,,,0.00,Wunderground v.1.12,2013-05-03 08:51:00,
2013-05-03 04:52:00,48.9,39.9,30.36,N/A,-737280,0.0,0.0,71,0.00,,,0.00,Wunderground v.1.12,2013-05-03 08:52:00,
2013-05-03 04:56:00,49.4,40.0,30.36,SSW,199,0.0,0.0,70,0.00,,,0.00,Wunderground v.1.12,2013-05-03 08:56:00,
2013-05-03 04:57:00,48.6,40.0,30.36,N/A,-737280,0.0,0.0,72,0.00,,,0.00,Wunderground v.1.12,2013-05-03 08:57:00,
2013-05-03 05:01:00,49.1,40.1,30.36,SSW,199,0.0,0.0,71,0.00,,,0.00,Wunderground v.1.12,2013-05-03 09:01:00,
2013-05-03 05:02:00,48.3,39.7,30.37,N/A,-737280,0.0,0.0,72,0.00,,,0.00,Wunderground v.1.12,2013-05-03 09:02:00,
2013-05-03 05:06:00,48.8,39.8,30.36,SSW,199,0.0,0.0,71,0.00,,,0.00,Wunderground v.1.12,2013-05-03 09:06:00,
2013-05-03 05:07:00,48.2,39.9,30.37,N/A,-737280,0.0,0.0,73,0.00,,,0.00,Wunderground v.1.12,2013-05-03 09:07:00,
2013-05-03 05:11:00,48.5,39.9,30.37,SSW,199,0.0,0.0,72,0.00,,,0.00,Wunderground v.1.12,2013-05-03 09:11:00,
2013-05-03 05:12:00,48.2,39.9,30.37,N/A,-737280,0.0,0.0,73,0.00,,,0.00,Wunderground v.1.12,2013-05-03 09:12:00,
2013-05-03 05:16:00,48.3,40.0,30.37,SSW,199,0.0,0.0,73,0.00,,,0.00,Wunderground v.1.12,2013-05-03 09:16:00,
2013-05-03 05:17:00,48.0,40.1,30.38,N/A,-737280,0.0,0.0,74,0.00,,,0.00,Wunderground v.1.12,2013-05-03 09:17:00,
2013-05-03 05:21:00,48.2,39.9,30.37,SSW,199,0.0,0.0,73,0.00,,,0.00,Wunderground v.1.12,2013-05-03 09:21:00,
2013-05-03 05:22:00,48.0,40.1,30.38,N/A,-737280,0.0,0.0,74,0.00,,,0.00,Wunderground v.1.12,2013-05-03 09:22:00,
2013-05-03 05:26:00,48.0,40.1,30.38,SSW,199,0.0,0.0,74,0.00,,,0.00,Wunderground v.1.12,2013-05-03 09:26:00,
2013-05-03 05:27:00,47.9,40.0,30.38,N/A,-737280,0.0,0.0,74,0.00,,,0.00,Wunderground v.1.12,2013-05-03 09:27:00,
2013-05-03 05:32:00,48.0,40.1,30.38,SSW,199,0.0,0.0,74,0.00,,,0.00,Wunderground v.1.12,2013-05-03 09:32:00,
2013-05-03 05:37:00,47.9,40.0,30.38,SSW,199,0.0,0.0,74,0.00,,,0.00,Wunderground v.1.12,2013-05-03 09:37:00,
2013-05-03 05:42:00,47.7,39.5,30.38,SSW,199,0.0,0.0,73,0.00,,,0.00,Wunderground v.1.12,2013-05-03 09:42:00,
2013-05-03 05:47:00,47.7,39.5,30.38,SSW,199,0.0,0.0,73,0.00,,,0.00,Wunderground v.1.12,2013-05-03 09:47:00,
2013-05-03 05:52:00,47.6,39.4,30.38,SSW,199,0.0,0.0,73,0.00,,,0.00,Wunderground v.1.12,2013-05-03 09:52:00,
2013-05-03 05:57:00,47.6,39.0,30.38,SSW,199,0.0,0.0,72,0.00,,,0.00,Wunderground v.1.12,2013-05-03 09:57:00,
2013-05-03 06:02:00,47.4,38.8,30.38,SSW,199,0.0,0.0,72,0.00,,,0.00,Wunderground v.1.12,2013-05-03 10:02:00,
2013-05-03 06:07:00,47.4,38.8,30.38,SSW,199,0.0,0.0,72,0.00,,,0.00,Wunderground v.1.12,2013-05-03 10:07:00,
2013-05-03 06:12:00,47.6,39.0,30.38,SSW,199,0.0,0.0,72,0.00,,,0.00,Wunderground v.1.12,2013-05-03 10:12:00,
2013-05-03 06:17:00,47.6,39.0,30.38,SSW,199,0.0,0.0,72,0.00,,,0.00,Wunderground v.1.12,2013-05-03 10:17:00,
2013-05-03 06:22:00,47.7,39.1,30.38,NE,56,0.0,0.0,72,0.00,,,0.00,Wunderground v.1.12,2013-05-03 10:22:00,
2013-05-03 06:27:00,48.0,39.0,30.39,ENE,57,0.0,0.0,71,0.00,,,0.00,Wunderground v.1.12,2013-05-03 10:27:00,
2013-05-03 06:32:00,48.2,39.2,30.39,ENE,57,0.0,0.0,71,0.00,,,0.00,Wunderground v.1.12,2013-05-03 10:32:00,
2013-05-03 06:37:00,48.5,38.8,30.39,ESE,117,0.0,0.0,69,0.00,,,0.00,Wunderground v.1.12,2013-05-03 10:37:00,
2013-05-03 06:42:00,48.8,38.7,30.39,ESE,117,0.0,0.0,68,0.00,,,0.00,Wunderground v.1.12,2013-05-03 10:42:00,
2013-05-03 06:47:00,48.9,38.0,30.39,SW,217,0.0,0.0,66,0.00,,,0.00,Wunderground v.1.12,2013-05-03 10:47:00,
2013-05-03 06:52:00,49.2,37.5,30.39,SW,217,0.0,0.0,64,0.00,,,0.00,Wunderground v.1.12,2013-05-03 10:52:00,
2013-05-03 06:57:00,49.5,37.0,30.39,SE,144,0.0,1.0,62,0.00,,,0.00,Wunderground v.1.12,2013-05-03 10:57:00,
2013-05-03 07:02:00,49.5,35.3,30.39,SW,217,0.0,0.0,58,0.00,,,0.00,Wunderground v.1.12,2013-05-03 11:02:00,
2013-05-03 07:07:00,49.5,34.9,30.39,SW,219,0.0,0.0,57,0.00,,,0.00,Wunderground v.1.12,2013-05-03 11:07:00,
2013-05-03 07:12:00,49.4,34.8,30.40,N/A,-737280,0.0,0.0,57,0.00,,,0.00,Wunderground v.1.12,2013-05-03 11:12:00,
2013-05-03 07:13:00,49.5,34.4,30.40,SW,219,0.0,0.0,56,0.00,,,0.00,Wunderground v.1.12,2013-05-03 11:13:00,
2013-05-03 07:17:00,49.2,33.7,30.40,N/A,-737280,0.0,0.0,55,0.00,,,0.00,Wunderground v.1.12,2013-05-03 11:17:00,
2013-05-03 07:18:00,49.4,34.3,30.40,SW,219,0.0,0.0,56,0.00,,,0.00,Wunderground v.1.12,2013-05-03 11:18:00,
2013-05-03 07:22:00,49.4,33.9,30.40,SW,225,0.0,2.0,55,0.00,,,0.00,Wunderground v.1.12,2013-05-03 11:22:00,
2013-05-03 07:23:00,49.4,34.8,30.40,SW,219,0.0,0.0,57,0.00,,,0.00,Wunderground v.1.12,2013-05-03 11:23:00,
2013-05-03 07:27:00,49.5,34.4,30.40,SW,225,0.0,1.0,56,0.00,,,0.00,Wunderground v.1.12,2013-05-03 11:27:00,
2013-05-03 07:28:00,49.2,34.2,30.40,SW,219,0.0,0.0,56,0.00,,,0.00,Wunderground v.1.12,2013-05-03 11:28:00,
2013-05-03 07:32:00,49.5,33.5,30.40,N/A,-737280,0.0,0.0,54,0.00,,,0.00,Wunderground v.1.12,2013-05-03 11:32:00,
2013-05-03 07:33:00,49.4,34.8,30.40,SW,217,0.0,1.0,57,0.00,,,0.00,Wunderground v.1.12,2013-05-03 11:33:00,
2013-05-03 07:37:00,49.5,34.0,30.40,N/A,-737280,0.0,0.0,55,0.00,,,0.00,Wunderground v.1.12,2013-05-03 11:37:00,
2013-05-03 07:38:00,49.5,34.0,30.40,SSW,205,0.0,1.0,55,0.00,,,0.00,Wunderground v.1.12,2013-05-03 11:38:00,
2013-05-03 07:42:00,49.4,34.3,30.40,N/A,-737280,0.0,0.0,56,0.00,,,0.00,Wunderground v.1.12,2013-05-03 11:42:00,
2013-05-03 07:43:00,49.5,33.5,30.40,SSW,205,0.0,0.0,54,0.00,,,0.00,Wunderground v.1.12,2013-05-03 11:43:00,
2013-05-03 07:47:00,49.2,33.7,30.41,N/A,-737280,0.0,0.0,55,0.00,,,0.00,Wunderground v.1.12,2013-05-03 11:47:00,
2013-05-03 07:48:00,49.5,34.0,30.40,SSW,205,0.0,0.0,55,0.00,,,0.00,Wunderground v.1.12,2013-05-03 11:48:00,
2013-05-03 07:52:00,49.4,34.8,30.41,N/A,-737280,0.0,0.0,57,0.00,,,0.00,Wunderground v.1.12,2013-05-03 11:52:00,
2013-05-03 07:53:00,49.4,34.3,30.40,SSW,205,0.0,0.0,56,0.00,,,0.00,Wunderground v.1.12,2013-05-03 11:53:00,
2013-05-03 07:57:00,49.9,34.8,30.41,N/A,-737280,0.0,0.0,56,0.00,,,0.00,Wunderground v.1.12,2013-05-03 11:57:00,
2013-05-03 07:58:00,49.2,33.7,30.41,SSW,205,0.0,0.0,55,0.00,,,0.00,Wunderground v.1.12,2013-05-03 11:58:00,
2013-05-03 08:02:00,50.7,34.2,30.40,SSW,203,0.0,1.0,53,0.00,,,0.00,Wunderground v.1.12,2013-05-03 12:02:00,
2013-05-03 08:03:00,49.5,34.4,30.41,SSW,205,0.0,0.0,56,0.00,,,0.00,Wunderground v.1.12,2013-05-03 12:03:00,
2013-05-03 08:07:00,51.1,34.5,30.40,South,180,0.0,1.0,53,0.00,,,0.00,Wunderground v.1.12,2013-05-03 12:07:00,
2013-05-03 08:09:00,50.1,35.0,30.41,SSW,205,0.0,0.0,56,0.00,,,0.00,Wunderground v.1.12,2013-05-03 12:09:00,
2013-05-03 08:12:00,51.4,34.3,30.40,N/A,-737280,0.0,0.0,52,0.00,,,0.00,Wunderground v.1.12,2013-05-03 12:12:00,
2013-05-03 08:14:00,50.8,34.7,30.40,SSE,163,0.0,0.0,54,0.00,,,0.00,Wunderground v.1.12,2013-05-03 12:14:00,
2013-05-03 08:17:00,51.6,34.5,30.40,South,180,0.0,1.0,52,0.00,,,0.00,Wunderground v.1.12,2013-05-03 12:17:00,
2013-05-03 08:20:00,51.3,34.7,30.40,South,169,0.0,0.0,53,0.00,,,0.00,Wunderground v.1.12,2013-05-03 12:20:00,
2013-05-03 08:22:00,51.9,34.8,30.40,N/A,-737280,0.0,0.0,52,0.00,,,0.00,Wunderground v.1.12,2013-05-03 12:22:00,
2013-05-03 08:25:00,51.4,34.8,30.40,South,186,0.0,0.0,53,0.00,,,0.00,Wunderground v.1.12,2013-05-03 12:25:00,
2013-05-03 08:27:00,52.2,35.6,30.40,N/A,-737280,0.0,0.0,53,0.00,,,0.00,Wunderground v.1.12,2013-05-03 12:27:00,
2013-05-03 08:30:00,51.7,35.6,30.40,South,186,0.0,0.0,54,0.00,,,0.00,Wunderground v.1.12,2013-05-03 12:30:00,
2013-05-03 08:32:00,52.5,34.9,30.40,WNW,293,0.0,3.0,51,0.00,,,0.00,Wunderground v.1.12,2013-05-03 12:32:00,
2013-05-03 08:35:00,52.0,35.4,30.40,South,186,0.0,0.0,53,0.00,,,0.00,Wunderground v.1.12,2013-05-03 12:35:00,
2013-05-03 08:37:00,52.8,35.2,30.40,WNW,293,0.0,2.0,51,0.00,,,0.00,Wunderground v.1.12,2013-05-03 12:37:00,
2013-05-03 08:40:00,52.3,34.2,30.40,SSW,210,0.0,2.0,50,0.00,,,0.00,Wunderground v.1.12,2013-05-03 12:40:00,
2013-05-03 08:42:00,53.1,34.9,30.40,SW,225,0.0,2.0,50,0.00,,,0.00,Wunderground v.1.12,2013-05-03 12:42:00,
2013-05-03 08:45:00,52.6,34.5,30.40,West,261,0.0,2.0,50,0.00,,,0.00,Wunderground v.1.12,2013-05-03 12:45:00,
2013-05-03 08:47:00,53.5,34.8,30.40,SSE,158,0.0,1.0,49,0.00,,,0.00,Wunderground v.1.12,2013-05-03 12:47:00,
2013-05-03 08:50:00,52.9,35.2,30.40,SW,229,0.0,0.0,51,0.00,,,0.00,Wunderground v.1.12,2013-05-03 12:50:00,
2013-05-03 08:52:00,53.6,34.9,30.40,N/A,-737280,0.0,0.0,49,0.00,,,0.00,Wunderground v.1.12,2013-05-03 12:52:00,
2013-05-03 08:55:00,53.3,35.1,30.40,South,170,0.0,2.0,50,0.00,,,0.00,Wunderground v.1.12,2013-05-03 12:55:00,
2013-05-03 08:57:00,53.8,35.6,30.40,South,180,0.0,1.0,50,0.00,,,0.00,Wunderground v.1.12,2013-05-03 12:57:00,
2013-05-03 09:00:00,53.5,34.8,30.40,South,170,0.0,0.0,49,0.00,,,0.00,Wunderground v.1.12,2013-05-03 13:00:00,
2013-05-03 09:02:00,54.1,34.8,30.40,WNW,293,0.0,3.0,48,0.00,,,0.00,Wunderground v.1.12,2013-05-03 13:02:00,
2013-05-03 09:05:00,53.8,34.6,30.40,South,170,0.0,0.0,48,0.00,,,0.00,Wunderground v.1.12,2013-05-03 13:05:00,
2013-05-03 09:07:00,54.4,35.6,30.40,WNW,293,0.0,1.0,49,0.00,,,0.00,Wunderground v.1.12,2013-05-03 13:07:00,
2013-05-03 09:10:00,53.9,35.2,30.40,South,184,0.0,1.0,49,0.00,,,0.00,Wunderground v.1.12,2013-05-03 13:10:00,
2013-05-03 09:12:00,54.5,34.7,30.40,N/A,-737280,0.0,0.0,47,0.00,,,0.00,Wunderground v.1.12,2013-05-03 13:12:00,
2013-05-03 09:15:00,54.2,35.4,30.40,West,281,0.0,3.0,49,0.00,,,0.00,Wunderground v.1.12,2013-05-03 13:15:00,
2013-05-03 09:17:00,54.8,36.0,30.40,N/A,-737280,0.0,0.0,49,0.00,,,0.00,Wunderground v.1.12,2013-05-03 13:17:00,
2013-05-03 09:20:00,54.5,35.2,30.40,WNW,286,0.0,0.0,48,0.00,,,0.00,Wunderground v.1.12,2013-05-03 13:20:00,
2013-05-03 09:22:00,55.0,36.2,30.40,SSE,158,0.0,2.0,49,0.00,,,0.00,Wunderground v.1.12,2013-05-03 13:22:00,
2013-05-03 09:25:00,54.7,35.4,30.40,NE,52,0.0,0.0,48,0.00,,,0.00,Wunderground v.1.12,2013-05-03 13:25:00,
2013-05-03 09:27:00,55.3,35.9,30.40,South,180,0.0,1.0,48,0.00,,,0.00,Wunderground v.1.12,2013-05-03 13:27:00,
2013-05-03 09:30:00,54.8,34.9,30.40,South,175,0.0,2.0,47,0.00,,,0.00,Wunderground v.1.12,2013-05-03 13:30:00,
2013-05-03 09:32:00,55.6,35.1,30.40,N/A,-737280,0.0,0.0,46,0.00,,,0.00,Wunderground v.1.12,2013-05-03 13:32:00,
2013-05-03 09:35:00,55.1,35.7,30.40,SSW,211,0.0,0.0,48,0.00,,,0.00,Wunderground v.1.12,2013-05-03 13:35:00,
2013-05-03 09:37:00,55.7,35.8,30.40,N/A,-737280,0.0,0.0,47,0.00,,,0.00,Wunderground v.1.12,2013-05-03 13:37:00,
2013-05-03 09:40:00,55.4,34.9,30.40,SSW,194,0.0,0.0,46,0.00,,,0.00,Wunderground v.1.12,2013-05-03 13:40:00,
2013-05-03 09:42:00,56.0,35.5,30.40,SSE,158,0.0,2.0,46,0.00,,,0.00,Wunderground v.1.12,2013-05-03 13:42:00,
2013-05-03 09:45:00,55.7,35.2,30.40,SW,225,0.0,0.0,46,0.00,,,0.00,Wunderground v.1.12,2013-05-03 13:45:00,
2013-05-03 09:47:00,56.3,35.2,30.39,SSE,158,0.0,1.0,45,0.00,,,0.00,Wunderground v.1.12,2013-05-03 13:47:00,
2013-05-03 09:50:00,56.0,36.0,30.40,SSE,158,2.0,2.0,47,0.00,,,0.00,Wunderground v.1.12,2013-05-03 13:50:00,
2013-05-03 09:52:00,56.6,36.0,30.39,NNW,338,0.0,1.0,46,0.00,,,0.00,Wunderground v.1.12,2013-05-03 13:52:00,
2013-05-03 09:55:00,56.3,35.8,30.40,SSE,152,0.0,0.0,46,0.00,,,0.00,Wunderground v.1.12,2013-05-03 13:55:00,
2013-05-03 09:57:00,57.0,35.3,30.39,WNW,293,0.0,4.0,44,0.00,,,0.00,Wunderground v.1.12,2013-05-03 13:57:00,
2013-05-03 10:00:00,56.5,36.0,30.39,SSW,206,0.0,0.0,46,0.00,,,0.00,Wunderground v.1.12,2013-05-03 14:00:00,
2013-05-03 10:02:00,57.0,35.9,30.39,ESE,113,0.0,4.0,45,0.00,,,0.00,Wunderground v.1.12,2013-05-03 14:02:00,
2013-05-03 10:05:00,56.9,36.3,30.39,WNW,284,0.0,0.0,46,0.00,,,0.00,Wunderground v.1.12,2013-05-03 14:05:00,
2013-05-03 10:07:00,57.3,35.6,30.39,N/A,-737280,0.0,0.0,44,0.00,,,0.00,Wunderground v.1.12,2013-05-03 14:07:00,
2013-05-03 10:10:00,57.0,35.3,30.39,SE,126,0.0,0.0,44,0.00,,,0.00,Wunderground v.1.12,2013-05-03 14:10:00,
2013-05-03 10:12:00,57.5,34.6,30.39,WSW,248,1.0,6.0,42,0.00,,,0.00,Wunderground v.1.12,2013-05-03 14:12:00,
2013-05-03 10:15:00,57.2,35.5,30.39,WNW,296,0.0,0.0,44,0.00,,,0.00,Wunderground v.1.12,2013-05-03 14:15:00,
2013-05-03 10:17:00,58.0,33.8,30.40,ENE,68,0.0,1.0,40,0.00,,,0.00,Wunderground v.1.12,2013-05-03 14:17:00,
2013-05-03 10:20:00,57.5,34.0,30.39,SSW,207,0.0,0.0,41,0.00,,,0.00,Wunderground v.1.12,2013-05-03 14:20:00,
2013-05-03 10:22:00,58.3,33.4,30.40,WSW,248,0.0,1.0,39,0.00,,,0.00,Wunderground v.1.12,2013-05-03 14:22:00,
2013-05-03 10:25:00,57.8,34.8,30.39,SSW,196,0.0,0.0,42,0.00,,,0.00,Wunderground v.1.12,2013-05-03 14:25:00,
2013-05-03 10:27:00,58.4,34.8,30.40,SSE,158,0.0,3.0,41,0.00,,,0.00,Wunderground v.1.12,2013-05-03 14:27:00,
2013-05-03 10:31:00,58.1,33.2,30.40,WSW,258,0.0,0.0,39,0.00,,,0.00,Wunderground v.1.12,2013-05-03 14:31:00,
2013-05-03 10:32:00,58.7,34.4,30.40,N/A,-737280,0.0,0.0,40,0.00,,,0.00,Wunderground v.1.12,2013-05-03 14:32:00,
2013-05-03 10:36:00,58.4,34.2,30.40,SSE,167,1.0,1.0,40,0.00,,,0.00,Wunderground v.1.12,2013-05-03 14:36:00,
2013-05-03 10:37:00,59.2,34.9,30.40,SSE,158,0.0,2.0,40,0.00,,,0.00,Wunderground v.1.12,2013-05-03 14:37:00,
2013-05-03 10:41:00,58.6,33.7,30.40,SSE,167,0.0,0.0,39,0.00,,,0.00,Wunderground v.1.12,2013-05-03 14:41:00,
2013-05-03 10:42:00,59.5,35.1,30.40,WNW,293,0.0,3.0,40,0.00,,,0.00,Wunderground v.1.12,2013-05-03 14:42:00,
2013-05-03 10:46:00,59.2,34.9,30.40,SSE,164,0.0,2.0,40,0.00,,,0.00,Wunderground v.1.12,2013-05-03 14:46:00,
2013-05-03 10:47:00,59.6,34.6,30.39,NW,315,0.0,3.0,39,0.00,,,0.00,Wunderground v.1.12,2013-05-03 14:47:00,
2013-05-03 10:51:00,59.3,35.0,30.40,SW,229,0.0,0.0,40,0.00,,,0.00,Wunderground v.1.12,2013-05-03 14:51:00,
2013-05-03 10:52:00,59.8,34.1,30.39,WSW,248,0.0,3.0,38,0.00,,,0.00,Wunderground v.1.12,2013-05-03 14:52:00,
2013-05-03 10:56:00,59.6,33.9,30.40,SSW,206,0.0,0.0,38,0.00,,,0.00,Wunderground v.1.12,2013-05-03 14:56:00,
2013-05-03 10:57:00,60.2,33.8,30.39,SSE,158,0.0,3.0,37,0.00,,,0.00,Wunderground v.1.12,2013-05-03 14:57:00,
2013-05-03 11:01:00,59.6,33.3,30.39,SSE,163,0.0,0.0,37,0.00,,,0.00,Wunderground v.1.12,2013-05-03 15:01:00,
2013-05-03 11:02:00,60.2,33.8,30.39,South,180,0.0,4.0,37,0.00,,,0.00,Wunderground v.1.12,2013-05-03 15:02:00,
2013-05-03 11:06:00,60.1,33.0,30.39,West,267,0.0,0.0,36,0.00,,,0.00,Wunderground v.1.12,2013-05-03 15:06:00,
2013-05-03 11:07:00,60.7,32.9,30.39,WSW,248,0.0,1.0,35,0.00,,,0.00,Wunderground v.1.12,2013-05-03 15:07:00,
2013-05-03 11:11:00,60.2,33.8,30.39,South,176,0.0,3.0,37,0.00,,,0.00,Wunderground v.1.12,2013-05-03 15:11:00,
2013-05-03 11:12:00,61.6,33.7,30.39,NE,45,0.0,5.0,35,0.00,,,0.00,Wunderground v.1.12,2013-05-03 15:12:00,
2013-05-03 11:16:00,60.5,32.7,30.39,WSW,257,1.0,1.0,35,0.00,,,0.00,Wunderground v.1.12,2013-05-03 15:16:00,
2013-05-03 11:17:00,62.3,32.8,30.38,SW,225,0.0,4.0,33,0.00,,,0.00,Wunderground v.1.12,2013-05-03 15:17:00,
2013-05-03 11:21:00,61.3,32.7,30.39,NW,324,0.0,2.0,34,0.00,,,0.00,Wunderground v.1.12,2013-05-03 15:21:00,
2013-05-03 11:22:00,62.7,33.2,30.38,WNW,293,0.0,4.0,33,0.00,,,0.00,Wunderground v.1.12,2013-05-03 15:22:00,
2013-05-03 11:26:00,62.1,33.4,30.39,SW,227,1.0,2.0,34,0.00,,,0.00,Wunderground v.1.12,2013-05-03 15:26:00,
2013-05-03 11:27:00,63.2,35.1,30.38,SE,135,0.0,1.0,35,0.00,,,0.00,Wunderground v.1.12,2013-05-03 15:27:00,
2013-05-03 11:31:00,62.7,32.4,30.38,West,279,0.0,1.0,32,0.00,,,0.00,Wunderground v.1.12,2013-05-03 15:31:00,
2013-05-03 11:32:00,63.7,36.2,30.38,N/A,-737280,0.0,0.0,36,0.00,,,0.00,Wunderground v.1.12,2013-05-03 15:32:00,
2013-05-03 11:36:00,63.1,32.7,30.38,SE,128,0.0,0.0,32,0.00,,,0.00,Wunderground v.1.12,2013-05-03 15:36:00,
2013-05-03 11:37:00,64.5,32.4,30.38,SSW,203,0.0,1.0,30,0.00,,,0.00,Wunderground v.1.12,2013-05-03 15:37:00,
2013-05-03 11:41:00,63.7,36.2,30.38,WSW,245,0.0,0.0,36,0.00,,,0.00,Wunderground v.1.12,2013-05-03 15:41:00,
2013-05-03 11:42:00,65.0,33.6,30.38,West,270,0.0,1.0,31,0.00,,,0.00,Wunderground v.1.12,2013-05-03 15:42:00,
2013-05-03 11:46:00,64.2,33.7,30.38,NNW,335,0.0,0.0,32,0.00,,,0.00,Wunderground v.1.12,2013-05-03 15:46:00,
2013-05-03 11:47:00,64.8,35.8,30.37,N/A,-737280,0.0,0.0,34,0.00,,,0.00,Wunderground v.1.12,2013-05-03 15:47:00,
2013-05-03 11:51:00,65.0,34.4,30.38,SW,223,0.0,0.0,32,0.00,,,0.00,Wunderground v.1.12,2013-05-03 15:51:00,
2013-05-03 11:52:00,65.3,35.4,30.37,East,90,0.0,1.0,33,0.00,,,0.00,Wunderground v.1.12,2013-05-03 15:52:00,
2013-05-03 11:56:00,64.7,35.7,30.37,SE,144,0.0,0.0,34,0.00,,,0.00,Wunderground v.1.12,2013-05-03 15:56:00,
2013-05-03 11:57:00,66.1,36.1,30.37,N/A,-737280,0.0,0.0,33,0.00,,,0.00,Wunderground v.1.12,2013-05-03 15:57:00,
2013-05-03 12:01:00,65.3,35.4,30.37,WSW,248,0.0,0.0,33,0.00,,,0.00,Wunderground v.1.12,2013-05-03 16:01:00,
2013-05-03 12:02:00,65.3,33.9,30.37,SSE,158,0.0,3.0,31,0.00,,,0.00,Wunderground v.1.12,2013-05-03 16:02:00,
2013-05-03 12:07:00,66.0,38.3,30.37,SSW,192,0.0,0.0,36,0.00,,,0.00,Wunderground v.1.12,2013-05-03 16:07:00,
2013-05-03 12:12:00,65.6,34.1,30.37,SSE,152,0.0,2.0,31,0.00,,,0.00,Wunderground v.1.12,2013-05-03 16:12:00,
2013-05-03 12:17:00,65.2,35.4,30.37,South,171,0.0,0.0,33,0.00,,,0.00,Wunderground v.1.12,2013-05-03 16:17:00,
2013-05-03 12:22:00,65.5,37.1,30.37,SE,146,0.0,0.0,35,0.00,,,0.00,Wunderground v.1.12,2013-05-03 16:22:00,
2013-05-03 12:27:00,65.5,36.4,30.37,South,173,0.0,0.0,34,0.00,,,0.00,Wunderground v.1.12,2013-05-03 16:27:00,
2013-05-03 12:32:00,66.0,35.3,30.37,WNW,286,0.0,1.0,32,0.00,,,0.00,Wunderground v.1.12,2013-05-03 16:32:00,
2013-05-03 12:37:00,65.8,35.1,30.37,SW,218,0.0,1.0,32,0.00,,,0.00,Wunderground v.1.12,2013-05-03 16:37:00,
2013-05-03 12:42:00,66.1,35.4,30.36,WSW,238,0.0,0.0,32,0.00,,,0.00,Wunderground v.1.12,2013-05-03 16:42:00,
2013-05-03 12:47:00,66.1,34.6,30.36,ENE,57,0.0,3.0,31,0.00,,,0.00,Wunderground v.1.12,2013-05-03 16:47:00,
2013-05-03 12:52:00,66.8,35.2,30.36,NNW,338,0.0,2.0,31,0.00,,,0.00,Wunderground v.1.12,2013-05-03 16:52:00,
2013-05-03 12:53:00,66.3,35.5,30.36,SW,215,0.0,0.0,32,0.00,,,0.00,Wunderground v.1.12,2013-05-03 16:53:00,
2013-05-03 12:57:00,66.9,33.6,30.36,SW,225,0.0,1.0,29,0.00,,,0.00,Wunderground v.1.12,2013-05-03 16:57:00,
2013-05-03 12:58:00,66.4,35.6,30.36,NW,305,0.0,2.0,32,0.00,,,0.00,Wunderground v.1.12,2013-05-03 16:58:00,
2013-05-03 13:02:00,66.9,33.6,30.36,WNW,293,0.0,1.0,29,0.00,,,0.00,Wunderground v.1.12,2013-05-03 17:02:00,
2013-05-03 13:03:00,66.8,35.2,30.36,WSW,256,0.0,2.0,31,0.00,,,0.00,Wunderground v.1.12,2013-05-03 17:03:00,
2013-05-03 13:07:00,66.8,33.5,30.36,NW,315,0.0,3.0,29,0.00,,,0.00,Wunderground v.1.12,2013-05-03 17:07:00,
2013-05-03 13:08:00,66.9,33.6,30.36,SW,223,0.0,0.0,29,0.00,,,0.00,Wunderground v.1.12,2013-05-03 17:08:00,
2013-05-03 13:12:00,66.9,33.6,30.36,West,270,0.0,1.0,29,0.00,,,0.00,Wunderground v.1.12,2013-05-03 17:12:00,
2013-05-03 13:13:00,66.9,32.7,30.36,NNE,29,0.0,0.0,28,0.00,,,0.00,Wunderground v.1.12,2013-05-03 17:13:00,
2013-05-03 13:17:00,67.4,34.0,30.36,ESE,113,0.0,1.0,29,0.00,,,0.00,Wunderground v.1.12,2013-05-03 17:17:00,
2013-05-03 13:18:00,66.8,33.5,30.36,WSW,249,0.0,2.0,29,0.00,,,0.00,Wunderground v.1.12,2013-05-03 17:18:00,
2013-05-03 13:22:00,67.8,33.5,30.36,NW,315,0.0,1.0,28,0.00,,,0.00,Wunderground v.1.12,2013-05-03 17:22:00,
2013-05-03 13:23:00,66.9,33.6,30.36,WSW,243,0.0,0.0,29,0.00,,,0.00,Wunderground v.1.12,2013-05-03 17:23:00,
2013-05-03 13:27:00,67.9,31.7,30.36,WNW,293,0.0,1.0,26,0.00,,,0.00,Wunderground v.1.12,2013-05-03 17:27:00,
2013-05-03 13:28:00,67.6,33.3,30.36,SSE,159,0.0,0.0,28,0.00,,,0.00,Wunderground v.1.12,2013-05-03 17:28:00,
2013-05-03 13:32:00,68.1,32.8,30.36,WSW,248,0.0,1.0,27,0.00,,,0.00,Wunderground v.1.12,2013-05-03 17:32:00,
2013-05-03 13:34:00,67.9,32.7,30.36,WNW,292,0.0,1.0,27,0.00,,,0.00,Wunderground v.1.12,2013-05-03 17:34:00,
2013-05-03 13:37:00,67.8,32.6,30.36,WNW,293,0.0,3.0,27,0.00,,,0.00,Wunderground v.1.12,2013-05-03 17:37:00,
2013-05-03 13:39:00,67.9,33.6,30.36,SW,224,0.0,0.0,28,0.00,,,0.00,Wunderground v.1.12,2013-05-03 17:39:00,
2013-05-03 13:42:00,68.1,32.8,30.36,WNW,293,0.0,1.0,27,0.00,,,0.00,Wunderground v.1.12,2013-05-03 17:42:00,
2013-05-03 13:44:00,68.1,32.8,30.36,West,259,0.0,1.0,27,0.00,,,0.00,Wunderground v.1.12,2013-05-03 17:44:00,
2013-05-03 13:47:00,67.4,30.3,30.36,South,180,0.0,2.0,25,0.00,,,0.00,Wunderground v.1.12,2013-05-03 17:47:00,
2013-05-03 13:50:00,67.9,34.4,30.36,WNW,283,0.0,1.0,29,0.00,,,0.00,Wunderground v.1.12,2013-05-03 17:50:00,
2013-05-03 13:52:00,67.6,31.5,30.36,WNW,293,0.0,1.0,26,0.00,,,0.00,Wunderground v.1.12,2013-05-03 17:52:00,
2013-05-03 13:55:00,68.1,30.9,30.36,South,188,2.0,2.0,25,0.00,,,0.00,Wunderground v.1.12,2013-05-03 17:55:00,
2013-05-03 13:57:00,68.1,31.9,30.36,NW,315,0.0,3.0,26,0.00,,,0.00,Wunderground v.1.12,2013-05-03 17:57:00,
2013-05-03 14:00:00,67.4,30.3,30.36,NW,312,0.0,1.0,25,0.00,,,0.00,Wunderground v.1.12,2013-05-03 18:00:00,
2013-05-03 14:02:00,68.1,30.9,30.35,WNW,293,0.0,1.0,25,0.00,,,0.00,Wunderground v.1.12,2013-05-03 18:02:00,
2013-05-03 14:05:00,67.8,33.5,30.36,West,261,0.0,0.0,28,0.00,,,0.00,Wunderground v.1.12,2013-05-03 18:05:00,
2013-05-03 14:07:00,68.3,32.1,30.35,N/A,-737280,0.0,0.0,26,0.00,,,0.00,Wunderground v.1.12,2013-05-03 18:07:00,
2013-05-03 14:10:00,68.1,32.8,30.36,West,263,0.0,2.0,27,0.00,,,0.00,Wunderground v.1.12,2013-05-03 18:10:00,
2013-05-03 14:12:00,68.3,33.0,30.35,SW,225,0.0,2.0,27,0.00,,,0.00,Wunderground v.1.12,2013-05-03 18:12:00,
2013-05-03 14:15:00,68.1,33.7,30.35,NE,34,0.0,0.0,28,0.00,,,0.00,Wunderground v.1.12,2013-05-03 18:15:00,
2013-05-03 14:17:00,68.3,33.0,30.35,WNW,293,0.0,2.0,27,0.00,,,0.00,Wunderground v.1.12,2013-05-03 18:17:00,
2013-05-03 14:20:00,68.3,32.1,30.35,WSW,256,0.0,1.0,26,0.00,,,0.00,Wunderground v.1.12,2013-05-03 18:20:00,
2013-05-03 14:22:00,68.1,31.9,30.35,WNW,293,0.0,2.0,26,0.00,,,0.00,Wunderground v.1.12,2013-05-03 18:22:00,
2013-05-03 14:25:00,68.3,33.0,30.35,WSW,247,1.0,1.0,27,0.00,,,0.00,Wunderground v.1.12,2013-05-03 18:25:00,
2013-05-03 14:27:00,67.6,32.4,30.35,NNW,338,0.0,1.0,27,0.00,,,0.00,Wunderground v.1.12,2013-05-03 18:27:00,
2013-05-03 14:30:00,68.3,32.1,30.35,WNW,300,0.0,0.0,26,0.00,,,0.00,Wunderground v.1.12,2013-05-03 18:30:00,
2013-05-03 14:32:00,68.1,31.9,30.34,WSW,248,0.0,1.0,26,0.00,,,0.00,Wunderground v.1.12,2013-05-03 18:32:00,
2013-05-03 14:35:00,67.8,31.6,30.35,East,90,0.0,0.0,26,0.00,,,0.00,Wunderground v.1.12,2013-05-03 18:35:00,
2013-05-03 14:37:00,67.6,32.4,30.34,WSW,248,0.0,1.0,27,0.00,,,0.00,Wunderground v.1.12,2013-05-03 18:37:00,
2013-05-03 14:40:00,67.9,31.7,30.35,WSW,252,0.0,0.0,26,0.00,,,0.00,Wunderground v.1.12,2013-05-03 18:40:00,
2013-05-03 14:42:00,68.1,31.9,30.34,N/A,-737280,0.0,0.0,26,0.00,,,0.00,Wunderground v.1.12,2013-05-03 18:42:00,
2013-05-03 14:45:00,67.6,29.5,30.34,NW,322,0.0,0.0,24,0.00,,,0.00,Wunderground v.1.12,2013-05-03 18:45:00,
2013-05-03 14:47:00,67.9,31.7,30.33,NW,315,0.0,2.0,26,0.00,,,0.00,Wunderground v.1.12,2013-05-03 18:47:00,
2013-05-03 14:50:00,67.9,29.7,30.34,NW,322,0.0,0.0,24,0.00,,,0.00,Wunderground v.1.12,2013-05-03 18:50:00,
2013-05-03 14:52:00,67.4,30.3,30.33,NNW,338,0.0,1.0,25,0.00,,,0.00,Wunderground v.1.12,2013-05-03 18:52:00,
2013-05-03 14:56:00,67.9,30.8,30.34,NW,309,0.0,0.0,25,0.00,,,0.00,Wunderground v.1.12,2013-05-03 18:56:00,
2013-05-03 14:57:00,67.9,31.7,30.33,ESE,113,0.0,1.0,26,0.00,,,0.00,Wunderground v.1.12,2013-05-03 18:57:00,
2013-05-03 15:01:00,67.8,29.7,30.33,North,360,0.0,0.0,24,0.00,,,0.00,Wunderground v.1.12,2013-05-03 19:01:00,
2013-05-03 15:02:00,68.3,33.9,30.33,WNW,293,0.0,2.0,28,0.00,,,0.00,Wunderground v.1.12,2013-05-03 19:02:00,
2013-05-03 15:06:00,67.6,31.5,30.33,SSE,165,0.0,0.0,26,0.00,,,0.00,Wunderground v.1.12,2013-05-03 19:06:00,
2013-05-03 15:07:00,68.3,28.0,30.33,West,270,0.0,1.0,22,0.00,,,0.00,Wunderground v.1.12,2013-05-03 19:07:00,
2013-05-03 15:11:00,68.3,31.1,30.33,South,184,0.0,0.0,25,0.00,,,0.00,Wunderground v.1.12,2013-05-03 19:11:00,
2013-05-03 15:12:00,67.9,27.6,30.33,WSW,248,0.0,1.0,22,0.00,,,0.00,Wunderground v.1.12,2013-05-03 19:12:00,
2013-05-03 15:16:00,68.4,30.2,30.33,West,266,0.0,0.0,24,0.00,,,0.00,Wunderground v.1.12,2013-05-03 19:16:00,
2013-05-03 15:17:00,68.4,29.1,30.33,ESE,113,0.0,1.0,23,0.00,,,0.00,Wunderground v.1.12,2013-05-03 19:17:00,
2013-05-03 15:21:00,67.9,31.7,30.33,SW,223,0.0,0.0,26,0.00,,,0.00,Wunderground v.1.12,2013-05-03 19:21:00,
2013-05-03 15:22:00,68.4,30.2,30.33,WSW,248,0.0,2.0,24,0.00,,,0.00,Wunderground v.1.12,2013-05-03 19:22:00,
2013-05-03 15:26:00,68.3,31.1,30.33,WSW,254,0.0,0.0,25,0.00,,,0.00,Wunderground v.1.12,2013-05-03 19:26:00,
2013-05-03 15:27:00,68.8,30.5,30.33,N/A,-737280,0.0,0.0,24,0.00,,,0.00,Wunderground v.1.12,2013-05-03 19:27:00,
2013-05-03 15:31:00,68.4,30.2,30.32,NW,308,0.0,0.0,24,0.00,,,0.00,Wunderground v.1.12,2013-05-03 19:31:00,
2013-05-03 15:32:00,68.6,31.3,30.32,N/A,-737280,0.0,0.0,25,0.00,,,0.00,Wunderground v.1.12,2013-05-03 19:32:00,
2013-05-03 15:36:00,68.8,32.5,30.32,WNW,297,0.0,0.0,26,0.00,,,0.00,Wunderground v.1.12,2013-05-03 19:36:00,
2013-05-03 15:37:00,69.1,33.7,30.32,N/A,-737280,0.0,0.0,27,0.00,,,0.00,Wunderground v.1.12,2013-05-03 19:37:00,
2013-05-03 15:41:00,68.8,31.5,30.32,SSW,196,0.0,0.0,25,0.00,,,0.00,Wunderground v.1.12,2013-05-03 19:41:00,
2013-05-03 15:42:00,69.4,32.0,30.32,N/A,-737280,0.0,0.0,25,0.00,,,0.00,Wunderground v.1.12,2013-05-03 19:42:00,
2013-05-03 15:46:00,68.9,32.6,30.32,SSW,200,0.0,0.0,26,0.00,,,0.00,Wunderground v.1.12,2013-05-03 19:46:00,
2013-05-03 15:47:00,69.3,33.9,30.32,ENE,68,0.0,3.0,27,0.00,,,0.00,Wunderground v.1.12,2013-05-03 19:47:00,
2013-05-03 15:51:00,69.4,32.0,30.32,SW,228,0.0,0.0,25,0.00,,,0.00,Wunderground v.1.12,2013-05-03 19:51:00,
2013-05-03 15:52:00,69.1,31.8,30.32,South,180,0.0,1.0,25,0.00,,,0.00,Wunderground v.1.12,2013-05-03 19:52:00,
2013-05-03 15:56:00,69.3,30.9,30.32,ENE,78,0.0,0.0,24,0.00,,,0.00,Wunderground v.1.12,2013-05-03 19:56:00,
2013-05-03 15:57:00,69.1,30.8,30.32,WSW,248,0.0,1.0,24,0.00,,,0.00,Wunderground v.1.12,2013-05-03 19:57:00,
2013-05-03 16:01:00,69.3,30.9,30.32,South,183,0.0,0.0,24,0.00,,,0.00,Wunderground v.1.12,2013-05-03 20:01:00,
2013-05-03 16:02:00,68.4,30.2,30.32,N/A,-737280,0.0,0.0,24,0.00,,,0.00,Wunderground v.1.12,2013-05-03 20:02:00,
2013-05-03 16:06:00,69.3,29.9,30.32,WSW,252,0.0,0.0,23,0.00,,,0.00,Wunderground v.1.12,2013-05-03 20:06:00,
2013-05-03 16:07:00,68.6,30.3,30.32,N/A,-737280,0.0,0.0,24,0.00,,,0.00,Wunderground v.1.12,2013-05-03 20:07:00,
2013-05-03 16:11:00,68.6,30.3,30.32,NNW,335,0.0,0.0,24,0.00,,,0.00,Wunderground v.1.12,2013-05-03 20:11:00,
2013-05-03 16:12:00,68.4,28.0,30.32,N/A,-737280,0.0,0.0,22,0.00,,,0.00,Wunderground v.1.12,2013-05-03 20:12:00,
2013-05-03 16:16:00,68.6,31.3,30.32,West,278,0.0,0.0,25,0.00,,,0.00,Wunderground v.1.12,2013-05-03 20:16:00,
2013-05-03 16:17:00,68.1,27.8,30.31,WNW,293,0.0,1.0,22,0.00,,,0.00,Wunderground v.1.12,2013-05-03 20:17:00,
2013-05-03 16:21:00,68.6,30.3,30.32,WNW,290,0.0,0.0,24,0.00,,,0.00,Wunderground v.1.12,2013-05-03 20:21:00,
2013-05-03 16:22:00,67.8,28.6,30.31,N/A,-737280,0.0,0.0,23,0.00,,,0.00,Wunderground v.1.12,2013-05-03 20:22:00,
2013-05-03 16:26:00,68.3,28.0,30.32,NNE,28,0.0,0.0,22,0.00,,,0.00,Wunderground v.1.12,2013-05-03 20:26:00,
2013-05-03 16:27:00,67.4,29.3,30.31,NW,315,0.0,1.0,24,0.00,,,0.00,Wunderground v.1.12,2013-05-03 20:27:00,
2013-05-03 16:31:00,67.8,30.7,30.31,North,351,0.0,0.0,25,0.00,,,0.00,Wunderground v.1.12,2013-05-03 20:31:00,
2013-05-03 16:32:00,67.1,30.1,30.31,NW,315,0.0,1.0,25,0.00,,,0.00,Wunderground v.1.12,2013-05-03 20:32:00,
2013-05-03 16:36:00,67.4,30.3,30.31,NW,312,0.0,0.0,25,0.00,,,0.00,Wunderground v.1.12,2013-05-03 20:36:00,
2013-05-03 16:37:00,66.9,28.9,30.31,N/A,-737280,0.0,0.0,24,0.00,,,0.00,Wunderground v.1.12,2013-05-03 20:37:00,
2013-05-03 16:41:00,67.3,29.2,30.31,North,355,0.0,0.0,24,0.00,,,0.00,Wunderground v.1.12,2013-05-03 20:41:00,
2013-05-03 16:42:00,66.6,29.6,30.31,SW,225,0.0,1.0,25,0.00,,,0.00,Wunderground v.1.12,2013-05-03 20:42:00,
2013-05-03 16:46:00,66.9,26.8,30.31,WNW,285,0.0,0.0,22,0.00,,,0.00,Wunderground v.1.12,2013-05-03 20:46:00,
2013-05-03 16:47:00,66.4,31.4,30.31,SSE,158,0.0,2.0,27,0.00,,,0.00,Wunderground v.1.12,2013-05-03 20:47:00,
2013-05-03 16:51:00,66.6,28.6,30.31,NE,35,0.0,0.0,24,0.00,,,0.00,Wunderground v.1.12,2013-05-03 20:51:00,
2013-05-03 16:52:00,66.4,31.4,30.31,N/A,-737280,0.0,0.0,27,0.00,,,0.00,Wunderground v.1.12,2013-05-03 20:52:00,
2013-05-03 16:57:00,66.4,31.4,30.31,SW,231,0.0,0.0,27,0.00,,,0.00,Wunderground v.1.12,2013-05-03 20:57:00,
2013-05-03 17:02:00,66.4,30.4,30.31,SW,231,0.0,0.0,26,0.00,,,0.00,Wunderground v.1.12,2013-05-03 21:02:00,
2013-05-03 17:07:00,66.1,30.2,30.31,West,274,0.0,0.0,26,0.00,,,0.00,Wunderground v.1.12,2013-05-03 21:07:00,
2013-05-03 17:12:00,66.1,31.1,30.31,NW,304,0.0,0.0,27,0.00,,,0.00,Wunderground v.1.12,2013-05-03 21:12:00,
2013-05-03 17:17:00,66.0,31.0,30.31,South,186,0.0,0.0,27,0.00,,,0.00,Wunderground v.1.12,2013-05-03 21:17:00,
2013-05-03 17:22:00,65.8,31.8,30.31,WSW,246,0.0,0.0,28,0.00,,,0.00,Wunderground v.1.12,2013-05-03 21:22:00,
2013-05-03 17:27:00,65.3,32.2,30.32,WSW,246,0.0,0.0,29,0.00,,,0.00,Wunderground v.1.12,2013-05-03 21:27:00,
2013-05-03 17:32:00,65.2,33.8,30.32,WSW,246,0.0,0.0,31,0.00,,,0.00,Wunderground v.1.12,2013-05-03 21:32:00,
2013-05-03 17:37:00,65.2,35.4,30.32,WSW,246,0.0,0.0,33,0.00,,,0.00,Wunderground v.1.12,2013-05-03 21:37:00,
2013-05-03 17:42:00,65.0,35.9,30.32,WSW,246,0.0,0.0,34,0.00,,,0.00,Wunderground v.1.12,2013-05-03 21:42:00,
2013-05-03 17:47:00,64.7,37.1,30.32,SW,219,0.0,0.0,36,0.00,,,0.00,Wunderground v.1.12,2013-05-03 21:47:00,
2013-05-03 17:52:00,64.3,35.3,30.32,WSW,254,0.0,0.0,34,0.00,,,0.00,Wunderground v.1.12,2013-05-03 21:52:00,
2013-05-03 17:57:00,63.9,36.4,30.31,ENE,61,0.0,0.0,36,0.00,,,0.00,Wunderground v.1.12,2013-05-03 21:57:00,
2013-05-03 18:02:00,63.7,36.2,30.31,ENE,61,0.0,0.0,36,0.00,,,0.00,Wunderground v.1.12,2013-05-03 22:02:00,
2013-05-03 18:07:00,63.5,36.0,30.31,ENE,61,0.0,0.0,36,0.00,,,0.00,Wunderground v.1.12,2013-05-03 22:07:00,
2013-05-03 18:12:00,63.2,36.5,30.32,ENE,61,0.0,0.0,37,0.00,,,0.00,Wunderground v.1.12,2013-05-03 22:12:00,
2013-05-03 18:17:00,63.1,37.7,30.32,ENE,61,0.0,0.0,39,0.00,,,0.00,Wunderground v.1.12,2013-05-03 22:17:00,
2013-05-03 18:22:00,62.9,37.5,30.32,ENE,61,0.0,0.0,39,0.00,,,0.00,Wunderground v.1.12,2013-05-03 22:22:00,
2013-05-03 18:27:00,62.4,37.1,30.31,ENE,61,0.0,0.0,39,0.00,,,0.00,Wunderground v.1.12,2013-05-03 22:27:00,
2013-05-03 18:32:00,62.1,37.5,30.31,ENE,61,0.0,0.0,40,0.00,,,0.00,Wunderground v.1.12,2013-05-03 22:32:00,
2013-05-03 18:37:00,61.8,36.6,30.31,ENE,59,0.0,0.0,39,0.00,,,0.00,Wunderground v.1.12,2013-05-03 22:37:00,
2013-05-03 18:42:00,61.3,36.1,30.32,ENE,59,0.0,0.0,39,0.00,,,0.00,Wunderground v.1.12,2013-05-03 22:42:00,
2013-05-03 18:47:00,60.9,35.8,30.32,ENE,59,0.0,0.0,39,0.00,,,0.00,Wunderground v.1.12,2013-05-03 22:47:00,
2013-05-03 18:52:00,60.2,35.1,30.32,ESE,111,0.0,0.0,39,0.00,,,0.00,Wunderground v.1.12,2013-05-03 22:52:00,
2013-05-03 18:57:00,59.8,35.4,30.32,ENE,60,0.0,0.0,40,0.00,,,0.00,Wunderground v.1.12,2013-05-03 22:57:00,
2013-05-03 19:02:00,59.3,34.3,30.32,ENE,60,0.0,0.0,39,0.00,,,0.00,Wunderground v.1.12,2013-05-03 23:02:00,
2013-05-03 19:07:00,58.4,36.6,30.33,N/A,-737280,0.0,0.0,44,0.00,,,0.00,Wunderground v.1.12,2013-05-03 23:07:00,
2013-05-03 19:08:00,59.0,35.3,30.32,ENE,60,0.0,0.0,41,0.00,,,0.00,Wunderground v.1.12,2013-05-03 23:08:00,
2013-05-03 19:12:00,58.1,36.9,30.33,N/A,-737280,0.0,0.0,45,0.00,,,0.00,Wunderground v.1.12,2013-05-03 23:12:00,
2013-05-03 19:13:00,58.7,35.7,30.33,ENE,60,0.0,0.0,42,0.00,,,0.00,Wunderground v.1.12,2013-05-03 23:13:00,
2013-05-03 19:17:00,57.8,36.6,30.33,N/A,-737280,0.0,0.0,45,0.00,,,0.00,Wunderground v.1.12,2013-05-03 23:17:00,
2013-05-03 19:18:00,58.4,36.6,30.33,ENE,60,0.0,0.0,44,0.00,,,0.00,Wunderground v.1.12,2013-05-03 23:18:00,
2013-05-03 19:22:00,57.5,36.9,30.33,N/A,-737280,0.0,0.0,46,0.00,,,0.00,Wunderground v.1.12,2013-05-03 23:22:00,
2013-05-03 19:23:00,58.1,36.9,30.33,ENE,60,0.0,0.0,45,0.00,,,0.00,Wunderground v.1.12,2013-05-03 23:23:00,
2013-05-03 19:27:00,57.2,37.1,30.33,N/A,-737280,0.0,0.0,47,0.00,,,0.00,Wunderground v.1.12,2013-05-03 23:27:00,
2013-05-03 19:28:00,57.8,36.6,30.33,ENE,60,0.0,0.0,45,0.00,,,0.00,Wunderground v.1.12,2013-05-03 23:28:00,
2013-05-03 19:32:00,56.9,36.9,30.33,N/A,-737280,0.0,0.0,47,0.00,,,0.00,Wunderground v.1.12,2013-05-03 23:32:00,
2013-05-03 19:33:00,57.5,36.9,30.33,ENE,60,0.0,0.0,46,0.00,,,0.00,Wunderground v.1.12,2013-05-03 23:33:00,
2013-05-03 19:37:00,56.5,36.5,30.33,N/A,-737280,0.0,0.0,47,0.00,,,0.00,Wunderground v.1.12,2013-05-03 23:37:00,
2013-05-03 19:38:00,57.2,37.1,30.33,ENE,60,0.0,0.0,47,0.00,,,0.00,Wunderground v.1.12,2013-05-03 23:38:00,
2013-05-03 19:42:00,56.2,36.8,30.33,N/A,-737280,0.0,0.0,48,0.00,,,0.00,Wunderground v.1.12,2013-05-03 23:42:00,
2013-05-03 19:43:00,56.7,36.7,30.33,ENE,60,0.0,0.0,47,0.00,,,0.00,Wunderground v.1.12,2013-05-03 23:43:00,
2013-05-03 19:47:00,55.7,37.3,30.33,N/A,-737280,0.0,0.0,50,0.00,,,0.00,Wunderground v.1.12,2013-05-03 23:47:00,
2013-05-03 19:49:00,56.3,36.8,30.33,ENE,60,0.0,0.0,48,0.00,,,0.00,Wunderground v.1.12,2013-05-03 23:49:00,
2013-05-03 19:52:00,55.4,37.1,30.33,N/A,-737280,0.0,0.0,50,0.00,,,0.00,Wunderground v.1.12,2013-05-03 23:52:00,
2013-05-03 19:54:00,56.0,36.6,30.33,ENE,60,0.0,0.0,48,0.00,,,0.00,Wunderground v.1.12,2013-05-03 23:54:00,
2013-05-03 19:57:00,55.0,36.7,30.33,N/A,-737280,0.0,0.0,50,0.00,,,0.00,Wunderground v.1.12,2013-05-03 23:57:00,
2013-05-03 19:59:00,55.6,37.2,30.33,ENE,60,0.0,0.0,50,0.00,,,0.00,Wunderground v.1.12,2013-05-03 23:59:00,
2013-05-03 20:02:00,54.7,36.9,30.33,N/A,-737280,0.0,0.0,51,0.00,,,0.00,Wunderground v.1.12,2013-05-04 00:02:00,
2013-05-03 20:05:00,55.3,37.0,30.33,ENE,60,0.0,0.0,50,0.00,,,0.00,Wunderground v.1.12,2013-05-04 00:05:00,
2013-05-03 20:07:00,54.2,36.9,30.33,N/A,-737280,0.0,0.0,52,0.00,,,0.00,Wunderground v.1.12,2013-05-04 00:07:00,
2013-05-03 20:10:00,54.8,37.0,30.33,ENE,60,0.0,0.0,51,0.00,,,0.00,Wunderground v.1.12,2013-05-04 00:10:00,
2013-05-03 20:12:00,53.9,36.7,30.33,N/A,-737280,0.0,0.0,52,0.00,,,0.00,Wunderground v.1.12,2013-05-04 00:12:00,
2013-05-03 20:15:00,54.4,36.6,30.33,ENE,60,0.0,0.0,51,0.00,,,0.00,Wunderground v.1.12,2013-05-04 00:15:00,
2013-05-03 20:17:00,53.6,36.9,30.33,N/A,-737280,0.0,0.0,53,0.00,,,0.00,Wunderground v.1.12,2013-05-04 00:17:00,
2013-05-03 20:20:00,54.1,36.9,30.33,ENE,60,0.0,0.0,52,0.00,,,0.00,Wunderground v.1.12,2013-05-04 00:20:00,
2013-05-03 20:22:00,53.2,37.0,30.33,N/A,-737280,0.0,0.0,54,0.00,,,0.00,Wunderground v.1.12,2013-05-04 00:22:00,
2013-05-03 20:25:00,53.8,36.6,30.33,ENE,60,0.0,0.0,52,0.00,,,0.00,Wunderground v.1.12,2013-05-04 00:25:00,
2013-05-03 20:27:00,52.9,36.7,30.33,N/A,-737280,0.0,0.0,54,0.00,,,0.00,Wunderground v.1.12,2013-05-04 00:27:00,
2013-05-03 20:30:00,53.3,37.1,30.34,ENE,60,0.0,0.0,54,0.00,,,0.00,Wunderground v.1.12,2013-05-04 00:30:00,
2013-05-03 20:32:00,52.6,36.9,30.34,N/A,-737280,0.0,0.0,55,0.00,,,0.00,Wunderground v.1.12,2013-05-04 00:32:00,
2013-05-03 20:35:00,53.1,36.9,30.34,ENE,60,0.0,0.0,54,0.00,,,0.00,Wunderground v.1.12,2013-05-04 00:35:00,
2013-05-03 20:37:00,52.5,36.8,30.34,N/A,-737280,0.0,0.0,55,0.00,,,0.00,Wunderground v.1.12,2013-05-04 00:37:00,
2013-05-03 20:40:00,52.8,37.1,30.34,ENE,60,0.0,0.0,55,0.00,,,0.00,Wunderground v.1.12,2013-05-04 00:40:00,
2013-05-03 20:42:00,52.2,37.0,30.34,N/A,-737280,0.0,0.0,56,0.00,,,0.00,Wunderground v.1.12,2013-05-04 00:42:00,
2013-05-03 20:45:00,52.5,36.8,30.34,ENE,60,0.0,0.0,55,0.00,,,0.00,Wunderground v.1.12,2013-05-04 00:45:00,
2013-05-03 20:47:00,51.9,37.1,30.34,N/A,-737280,0.0,0.0,57,0.00,,,0.00,Wunderground v.1.12,2013-05-04 00:47:00,
2013-05-03 20:50:00,52.3,37.1,30.34,ENE,60,0.0,0.0,56,0.00,,,0.00,Wunderground v.1.12,2013-05-04 00:50:00,
2013-05-03 20:52:00,51.7,36.5,30.34,N/A,-737280,0.0,0.0,56,0.00,,,0.00,Wunderground v.1.12,2013-05-04 00:52:00,
2013-05-03 20:55:00,52.0,36.8,30.34,ENE,60,0.0,0.0,56,0.00,,,0.00,Wunderground v.1.12,2013-05-04 00:55:00,
2013-05-03 20:57:00,51.4,37.1,30.34,N/A,-737280,0.0,0.0,58,0.00,,,0.00,Wunderground v.1.12,2013-05-04 00:57:00,
2013-05-03 21:00:00,51.7,36.5,30.34,ENE,60,0.0,0.0,56,0.00,,,0.00,Wunderground v.1.12,2013-05-04 01:00:00,
2013-05-03 21:02:00,51.3,37.0,30.35,N/A,-737280,0.0,0.0,58,0.00,,,0.00,Wunderground v.1.12,2013-05-04 01:02:00,
2013-05-03 21:05:00,51.4,37.1,30.34,ENE,60,0.0,0.0,58,0.00,,,0.00,Wunderground v.1.12,2013-05-04 01:05:00,
2013-05-03 21:07:00,51.0,36.7,30.35,N/A,-737280,0.0,0.0,58,0.00,,,0.00,Wunderground v.1.12,2013-05-04 01:07:00,
2013-05-03 21:10:00,51.3,37.0,30.34,ENE,60,0.0,0.0,58,0.00,,,0.00,Wunderground v.1.12,2013-05-04 01:10:00,
2013-05-03 21:12:00,50.8,37.4,30.35,N/A,-737280,0.0,0.0,60,0.00,,,0.00,Wunderground v.1.12,2013-05-04 01:12:00,
2013-05-03 21:15:00,51.1,36.8,30.35,ENE,60,0.0,0.0,58,0.00,,,0.00,Wunderground v.1.12,2013-05-04 01:15:00,
2013-05-03 21:17:00,50.5,37.1,30.34,N/A,-737280,0.0,0.0,60,0.00,,,0.00,Wunderground v.1.12,2013-05-04 01:17:00,
2013-05-03 21:20:00,50.8,37.0,30.35,ENE,60,0.0,0.0,59,0.00,,,0.00,Wunderground v.1.12,2013-05-04 01:20:00,
2013-05-03 21:22:00,50.4,37.0,30.34,N/A,-737280,0.0,0.0,60,0.00,,,0.00,Wunderground v.1.12,2013-05-04 01:22:00,
2013-05-03 21:25:00,50.7,37.3,30.35,ENE,60,0.0,0.0,60,0.00,,,0.00,Wunderground v.1.12,2013-05-04 01:25:00,
2013-05-03 21:27:00,50.2,38.5,30.34,N/A,-737280,0.0,0.0,64,0.00,,,0.00,Wunderground v.1.12,2013-05-04 01:27:00,
2013-05-03 21:30:00,50.4,37.0,30.34,ENE,60,0.0,0.0,60,0.00,,,0.00,Wunderground v.1.12,2013-05-04 01:30:00,
2013-05-03 21:32:00,50.1,38.8,30.35,N/A,-737280,0.0,0.0,65,0.00,,,0.00,Wunderground v.1.12,2013-05-04 01:32:00,
2013-05-03 21:36:00,50.2,37.7,30.34,ENE,60,0.0,0.0,62,0.00,,,0.00,Wunderground v.1.12,2013-05-04 01:36:00,
2013-05-03 21:37:00,49.9,39.4,30.35,N/A,-737280,0.0,0.0,67,0.00,,,0.00,Wunderground v.1.12,2013-05-04 01:37:00,
2013-05-03 21:41:00,50.1,38.8,30.34,ENE,60,0.0,0.0,65,0.00,,,0.00,Wunderground v.1.12,2013-05-04 01:41:00,
2013-05-03 21:42:00,49.8,39.7,30.35,N/A,-737280,0.0,0.0,68,0.00,,,0.00,Wunderground v.1.12,2013-05-04 01:42:00,
2013-05-03 21:46:00,50.1,39.2,30.35,ENE,60,0.0,0.0,66,0.00,,,0.00,Wunderground v.1.12,2013-05-04 01:46:00,
2013-05-03 21:47:00,49.6,39.8,30.35,N/A,-737280,0.0,0.0,69,0.00,,,0.00,Wunderground v.1.12,2013-05-04 01:47:00,
2013-05-03 21:51:00,49.8,39.3,30.35,ENE,60,0.0,0.0,67,0.00,,,0.00,Wunderground v.1.12,2013-05-04 01:51:00,
2013-05-03 21:52:00,49.5,39.7,30.35,N/A,-737280,0.0,0.0,69,0.00,,,0.00,Wunderground v.1.12,2013-05-04 01:52:00,
2013-05-03 21:56:00,49.6,39.5,30.35,ENE,60,0.0,0.0,68,0.00,,,0.00,Wunderground v.1.12,2013-05-04 01:56:00,
2013-05-03 21:57:00,49.4,40.0,30.35,N/A,-737280,0.0,0.0,70,0.00,,,0.00,Wunderground v.1.12,2013-05-04 01:57:00,
2013-05-03 22:01:00,49.6,39.8,30.35,ENE,60,0.0,0.0,69,0.00,,,0.00,Wunderground v.1.12,2013-05-04 02:01:00,
2013-05-03 22:02:00,49.2,39.8,30.35,N/A,-737280,0.0,0.0,70,0.00,,,0.00,Wunderground v.1.12,2013-05-04 02:02:00,
2013-05-03 22:06:00,49.4,39.7,30.35,ENE,60,0.0,0.0,69,0.00,,,0.00,Wunderground v.1.12,2013-05-04 02:06:00,
2013-05-03 22:07:00,49.1,40.1,30.35,N/A,-737280,0.0,0.0,71,0.00,,,0.00,Wunderground v.1.12,2013-05-04 02:07:00,
2013-05-03 22:11:00,49.2,39.8,30.35,ENE,60,0.0,0.0,70,0.00,,,0.00,Wunderground v.1.12,2013-05-04 02:11:00,
2013-05-03 22:12:00,48.8,40.2,30.35,N/A,-737280,0.0,0.0,72,0.00,,,0.00,Wunderground v.1.12,2013-05-04 02:12:00,
2013-05-03 22:16:00,49.1,40.1,30.35,ENE,60,0.0,0.0,71,0.00,,,0.00,Wunderground v.1.12,2013-05-04 02:16:00,
2013-05-03 22:17:00,48.6,40.0,30.34,N/A,-737280,0.0,0.0,72,0.00,,,0.00,Wunderground v.1.12,2013-05-04 02:17:00,
2013-05-03 22:21:00,48.9,40.3,30.35,ENE,60,0.0,0.0,72,0.00,,,0.00,Wunderground v.1.12,2013-05-04 02:21:00,
2013-05-03 22:22:00,48.3,40.0,30.34,N/A,-737280,0.0,0.0,73,0.00,,,0.00,Wunderground v.1.12,2013-05-04 02:22:00,
2013-05-03 22:26:00,48.8,40.2,30.35,ENE,60,0.0,0.0,72,0.00,,,0.00,Wunderground v.1.12,2013-05-04 02:26:00,
2013-05-03 22:27:00,48.2,40.3,30.34,N/A,-737280,0.0,0.0,74,0.00,,,0.00,Wunderground v.1.12,2013-05-04 02:27:00,
2013-05-03 22:31:00,48.5,40.2,30.34,ENE,60,0.0,0.0,73,0.00,,,0.00,Wunderground v.1.12,2013-05-04 02:31:00,
2013-05-03 22:32:00,48.0,40.1,30.34,N/A,-737280,0.0,0.0,74,0.00,,,0.00,Wunderground v.1.12,2013-05-04 02:32:00,
2013-05-03 22:36:00,48.3,40.0,30.34,ENE,60,0.0,0.0,73,0.00,,,0.00,Wunderground v.1.12,2013-05-04 02:36:00,
2013-05-03 22:37:00,47.9,40.0,30.34,N/A,-737280,0.0,0.0,74,0.00,,,0.00,Wunderground v.1.12,2013-05-04 02:37:00,
2013-05-03 22:41:00,48.0,40.1,30.34,ENE,60,0.0,0.0,74,0.00,,,0.00,Wunderground v.1.12,2013-05-04 02:41:00,
2013-05-03 22:42:00,47.6,39.7,30.34,N/A,-737280,0.0,0.0,74,0.00,,,0.00,Wunderground v.1.12,2013-05-04 02:42:00,
2013-05-03 22:46:00,47.9,40.0,30.34,ENE,60,0.0,0.0,74,0.00,,,0.00,Wunderground v.1.12,2013-05-04 02:46:00,
2013-05-03 22:47:00,47.4,39.9,30.34,N/A,-737280,0.0,0.0,75,0.00,,,0.00,Wunderground v.1.12,2013-05-04 02:47:00,
2013-05-03 22:51:00,47.7,39.8,30.34,ENE,60,0.0,0.0,74,0.00,,,0.00,Wunderground v.1.12,2013-05-04 02:51:00,
2013-05-03 22:52:00,47.3,39.8,30.34,N/A,-737280,0.0,0.0,75,0.00,,,0.00,Wunderground v.1.12,2013-05-04 02:52:00,
2013-05-03 22:56:00,47.6,40.1,30.34,ENE,60,0.0,0.0,75,0.00,,,0.00,Wunderground v.1.12,2013-05-04 02:56:00,
2013-05-03 22:57:00,47.1,39.9,30.34,N/A,-737280,0.0,0.0,76,0.00,,,0.00,Wunderground v.1.12,2013-05-04 02:57:00,
2013-05-03 23:01:00,47.3,39.8,30.34,ENE,60,0.0,0.0,75,0.00,,,0.00,Wunderground v.1.12,2013-05-04 03:01:00,
2013-05-03 23:02:00,46.8,39.6,30.34,N/A,-737280,0.0,0.0,76,0.00,,,0.00,Wunderground v.1.12,2013-05-04 03:02:00,
2013-05-03 23:07:00,47.1,39.6,30.34,ENE,60,0.0,0.0,75,0.00,,,0.00,Wunderground v.1.12,2013-05-04 03:07:00,
2013-05-03 23:12:00,47.0,39.8,30.34,ENE,60,0.0,0.0,76,0.00,,,0.00,Wunderground v.1.12,2013-05-04 03:12:00,
2013-05-03 23:17:00,46.7,39.5,30.34,ENE,60,0.0,0.0,76,0.00,,,0.00,Wunderground v.1.12,2013-05-04 03:17:00,
2013-05-03 23:22:00,46.4,39.6,30.34,ENE,60,0.0,0.0,77,0.00,,,0.00,Wunderground v.1.12,2013-05-04 03:22:00,
2013-05-03 23:27:00,46.2,39.7,30.33,ENE,60,0.0,0.0,78,0.00,,,0.00,Wunderground v.1.12,2013-05-04 03:27:00,
2013-05-03 23:32:00,46.2,39.7,30.33,ENE,60,0.0,0.0,78,0.00,,,0.00,Wunderground v.1.12,2013-05-04 03:32:00,
2013-05-03 23:37:00,46.1,39.6,30.33,ENE,60,0.0,0.0,78,0.00,,,0.00,Wunderground v.1.12,2013-05-04 03:37:00,
2013-05-03 23:42:00,46.1,39.6,30.33,ENE,60,0.0,0.0,78,0.00,,,0.00,Wunderground v.1.12,2013-05-04 03:42:00,
2013-05-03 23:47:00,46.1,39.9,30.33,ENE,60,0.0,0.0,79,0.00,,,0.00,Wunderground v.1.12,2013-05-04 03:47:00,
2013-05-03 23:52:00,46.0,39.5,30.33,ENE,60,0.0,0.0,78,0.00,,,0.00,Wunderground v.1.12,2013-05-04 03:52:00,
2013-05-03 23:57:00,45.8,39.7,30.33,ENE,60,0.0,0.0,79,0.00,,,0.00,Wunderground v.1.12,2013-05-04 03:57:00,